sensor_id;sensor_type;location;lat;lon;timestamp;pressure;altitude;pressure_sealevel;temperature;humidity
42385;BME280;28042;43.986;22.860;2023-04-02T00:01:54;100163.38;;;8.20;100.00
42385;BME280;28042;43.986;22.860;2023-04-02T00:04:21;100120.72;;;7.93;100.00
42385;BME280;28042;43.986;22.860;2023-04-02T00:06:50;100127.34;;;7.90;100.00
42385;BME280;28042;43.986;22.860;2023-04-02T00:09:29;100173.53;;;8.12;100.00
42385;BME280;28042;43.986;22.860;2023-04-02T00:11:56;100174.94;;;8.08;100.00
42385;BME280;28042;43.986;22.860;2023-04-02T00:14:31;100184.22;;;8.13;100.00
42385;BME280;28042;43.986;22.860;2023-04-02T00:17:04;100189.84;;;8.12;100.00
42385;BME280;28042;43.986;22.860;2023-04-02T00:22:15;100142.50;;;7.78;100.00
42385;BME280;28042;43.986;22.860;2023-04-02T00:24:41;100189.63;;;8.13;100.00
42385;BME280;28042;43.986;22.860;2023-04-02T00:27:11;100184.84;;;8.15;100.00
42385;BME280;28042;43.986;22.860;2023-04-02T00:29:51;100170.22;;;8.16;100.00
42385;BME280;28042;43.986;22.860;2023-04-02T00:32:29;100169.97;;;8.11;100.00
42385;BME280;28042;43.986;22.860;2023-04-02T00:34:56;100175.81;;;8.08;100.00
42385;BME280;28042;43.986;22.860;2023-04-02T00:37:26;100115.16;;;7.80;100.00
42385;BME280;28042;43.986;22.860;2023-04-02T00:40:04;100159.63;;;8.21;100.00
42385;BME280;28042;43.986;22.860;2023-04-02T00:42:33;100160.03;;;8.18;100.00
42385;BME280;28042;43.986;22.860;2023-04-02T00:45:00;100177.22;;;8.26;100.00
42385;BME280;28042;43.986;22.860;2023-04-02T00:47:32;100123.44;;;7.93;100.00
42385;BME280;28042;43.986;22.860;2023-04-02T00:50:04;100156.59;;;8.10;100.00
42385;BME280;28042;43.986;22.860;2023-04-02T00:52:31;100157.81;;;8.07;100.00
42385;BME280;28042;43.986;22.860;2023-04-02T00:55:04;100159.44;;;8.02;100.00
42385;BME280;28042;43.986;22.860;2023-04-02T00:57:31;100174.91;;;8.01;100.00
42385;BME280;28042;43.986;22.860;2023-04-02T01:05:50;100109.44;;;7.32;100.00
42385;BME280;28042;43.986;22.860;2023-04-02T01:19:01;100177.84;;;7.63;100.00
42385;BME280;28042;43.986;22.860;2023-04-02T01:24:12;100178.38;;;7.74;100.00
42385;BME280;28042;43.986;22.860;2023-04-02T01:26:47;100182.13;;;7.73;100.00
42385;BME280;28042;43.986;22.860;2023-04-02T01:29:53;100182.50;;;7.70;100.00
42385;BME280;28042;43.986;22.860;2023-04-02T01:32:22;100180.31;;;7.58;100.00
42385;BME280;28042;43.986;22.860;2023-04-02T01:34:50;100135.66;;;7.25;100.00
42385;BME280;28042;43.986;22.860;2023-04-02T01:42:23;100199.91;;;7.39;100.00
42385;BME280;28042;43.986;22.860;2023-04-02T01:45:07;100197.72;;;7.49;100.00
42385;BME280;28042;43.986;22.860;2023-04-02T01:47:33;100194.66;;;7.37;100.00
42385;BME280;28042;43.986;22.860;2023-04-02T01:50:13;100159.34;;;7.01;100.00
42385;BME280;28042;43.986;22.860;2023-04-02T01:52:44;100159.81;;;6.90;100.00
42385;BME280;28042;43.986;22.860;2023-04-02T01:55:13;100204.31;;;7.11;100.00
42385;BME280;28042;43.986;22.860;2023-04-02T01:57:41;100214.13;;;7.12;100.00
42385;BME280;28042;43.986;22.860;2023-04-02T02:00:10;100158.31;;;6.73;100.00
42385;BME280;28042;43.986;22.860;2023-04-02T02:02:39;100228.47;;;7.05;100.00
42385;BME280;28042;43.986;22.860;2023-04-02T02:05:11;100159.97;;;6.59;100.00
42385;BME280;28042;43.986;22.860;2023-04-02T02:07:38;100236.03;;;6.95;100.00
42385;BME280;28042;43.986;22.860;2023-04-02T02:10:06;100233.66;;;6.92;100.00
42385;BME280;28042;43.986;22.860;2023-04-02T02:12:32;100228.91;;;6.79;100.00
42385;BME280;28042;43.986;22.860;2023-04-02T02:14:58;100222.03;;;6.69;100.00
42385;BME280;28042;43.986;22.860;2023-04-02T02:17:29;100235.59;;;6.69;100.00
42385;BME280;28042;43.986;22.860;2023-04-02T02:20:00;100165.31;;;6.15;100.00
42385;BME280;28042;43.986;22.860;2023-04-02T02:22:29;100170.16;;;6.05;100.00
42385;BME280;28042;43.986;22.860;2023-04-02T02:25:01;100216.81;;;6.30;100.00
42385;BME280;28042;43.986;22.860;2023-04-02T02:32:43;100182.44;;;5.92;100.00
42385;BME280;28042;43.986;22.860;2023-04-02T02:37:43;100179.38;;;5.87;100.00
42385;BME280;28042;43.986;22.860;2023-04-02T02:40:16;100189.53;;;5.93;100.00
42385;BME280;28042;43.986;22.860;2023-04-02T02:42:50;100232.94;;;6.23;100.00
42385;BME280;28042;43.986;22.860;2023-04-02T02:45:23;100186.75;;;6.02;100.00
42385;BME280;28042;43.986;22.860;2023-04-02T02:47:50;100241.00;;;6.31;100.00
42385;BME280;28042;43.986;22.860;2023-04-02T02:50:22;100234.75;;;6.31;100.00
42385;BME280;28042;43.986;22.860;2023-04-02T02:52:53;100198.91;;;6.06;100.00
42385;BME280;28042;43.986;22.860;2023-04-02T02:55:30;100235.97;;;6.28;100.00
42385;BME280;28042;43.986;22.860;2023-04-02T02:58:08;100234.94;;;6.29;100.00
42385;BME280;28042;43.986;22.860;2023-04-02T03:00:36;100238.34;;;6.46;100.00
42385;BME280;28042;43.986;22.860;2023-04-02T03:03:11;100223.31;;;6.43;100.00
42385;BME280;28042;43.986;22.860;2023-04-02T03:05:39;100227.91;;;6.43;100.00
42385;BME280;28042;43.986;22.860;2023-04-02T03:08:13;100171.09;;;6.12;100.00
42385;BME280;28042;43.986;22.860;2023-04-02T03:10:49;100175.31;;;6.14;100.00
42385;BME280;28042;43.986;22.860;2023-04-02T03:24:11;100232.94;;;6.23;100.00
42385;BME280;28042;43.986;22.860;2023-04-02T03:27:01;100167.25;;;5.83;100.00
42385;BME280;28042;43.986;22.860;2023-04-02T03:29:32;100237.91;;;6.19;100.00
42385;BME280;28042;43.986;22.860;2023-04-02T03:32:06;100236.56;;;6.15;100.00
42385;BME280;28042;43.986;22.860;2023-04-02T03:34:38;100226.75;;;6.14;100.00
42385;BME280;28042;43.986;22.860;2023-04-02T03:42:47;100223.72;;;6.32;100.00
42385;BME280;28042;43.986;22.860;2023-04-02T03:45:17;100233.78;;;6.46;100.00
42385;BME280;28042;43.986;22.860;2023-04-02T03:52:50;100168.09;;;6.07;100.00
42385;BME280;28042;43.986;22.860;2023-04-02T03:55:24;100235.28;;;6.49;100.00
42385;BME280;28042;43.986;22.860;2023-04-02T04:03:08;100225.34;;;6.41;100.00
42385;BME280;28042;43.986;22.860;2023-04-02T04:05:37;100175.50;;;6.13;100.00
42385;BME280;28042;43.986;22.860;2023-04-02T04:08:15;100234.63;;;6.47;100.00
42385;BME280;28042;43.986;22.860;2023-04-02T04:10:42;100232.78;;;6.62;100.00
42385;BME280;28042;43.986;22.860;2023-04-02T04:13:12;100230.84;;;6.71;100.00
42385;BME280;28042;43.986;22.860;2023-04-02T04:21:24;100246.56;;;6.90;100.00
42385;BME280;28042;43.986;22.860;2023-04-02T04:24:18;100258.38;;;6.97;100.00
42385;BME280;28042;43.986;22.860;2023-04-02T04:26:55;100263.41;;;7.00;100.00
42385;BME280;28042;43.986;22.860;2023-04-02T04:31:57;100212.16;;;6.91;100.00
42385;BME280;28042;43.986;22.860;2023-04-02T04:34:42;100264.44;;;7.29;100.00
42385;BME280;28042;43.986;22.860;2023-04-02T04:37:29;100256.59;;;7.49;100.00
42385;BME280;28042;43.986;22.860;2023-04-02T04:39:59;100262.75;;;7.57;100.00
42385;BME280;28042;43.986;22.860;2023-04-02T04:42:31;100260.09;;;7.79;100.00
42385;BME280;28042;43.986;22.860;2023-04-02T04:45:05;100243.69;;;7.87;100.00
42385;BME280;28042;43.986;22.860;2023-04-02T04:47:38;100251.47;;;8.11;100.00
42385;BME280;28042;43.986;22.860;2023-04-02T04:50:12;100256.38;;;8.37;100.00
42385;BME280;28042;43.986;22.860;2023-04-02T04:52:41;100204.78;;;8.22;100.00
42385;BME280;28042;43.986;22.860;2023-04-02T04:55:29;100246.69;;;8.77;100.00
42385;BME280;28042;43.986;22.860;2023-04-02T04:58:34;100258.44;;;9.13;100.00
42385;BME280;28042;43.986;22.860;2023-04-02T05:01:09;100247.56;;;9.54;100.00
42385;BME280;28042;43.986;22.860;2023-04-02T05:20:55;100256.28;;;11.04;89.56
42385;BME280;28042;43.986;22.860;2023-04-02T05:23:34;100257.91;;;11.19;89.23
42385;BME280;28042;43.986;22.860;2023-04-02T05:26:13;100209.44;;;10.94;87.98
42385;BME280;28042;43.986;22.860;2023-04-02T05:28:51;100264.13;;;11.52;85.98
42385;BME280;28042;43.986;22.860;2023-04-02T05:31:28;100262.66;;;11.56;86.16
42385;BME280;28042;43.986;22.860;2023-04-02T05:33:55;100267.91;;;11.58;85.92
42385;BME280;28042;43.986;22.860;2023-04-02T05:36:23;100263.66;;;11.82;87.04
42385;BME280;28042;43.986;22.860;2023-04-02T05:38:51;100271.53;;;12.03;83.96
42385;BME280;28042;43.986;22.860;2023-04-02T05:47:19;100262.03;;;12.12;82.68
42385;BME280;28042;43.986;22.860;2023-04-02T05:49:48;100267.69;;;12.18;83.86
42385;BME280;28042;43.986;22.860;2023-04-02T05:52:25;100275.69;;;12.12;83.54
42385;BME280;28042;43.986;22.860;2023-04-02T05:54:58;100228.41;;;12.05;81.52
42385;BME280;28042;43.986;22.860;2023-04-02T05:57:33;100231.06;;;12.19;80.43
42385;BME280;28042;43.986;22.860;2023-04-02T06:00:05;100273.16;;;12.49;81.92
42385;BME280;28042;43.986;22.860;2023-04-02T06:02:36;100295.81;;;12.88;81.10
42385;BME280;28042;43.986;22.860;2023-04-02T06:07:43;100290.69;;;12.98;80.16
42385;BME280;28042;43.986;22.860;2023-04-02T06:10:17;100302.84;;;13.02;79.89
42385;BME280;28042;43.986;22.860;2023-04-02T06:12:53;100302.41;;;13.05;80.13
42385;BME280;28042;43.986;22.860;2023-04-02T06:15:21;100274.72;;;12.95;79.10
42385;BME280;28042;43.986;22.860;2023-04-02T06:18:23;100303.69;;;13.02;80.18
42385;BME280;28042;43.986;22.860;2023-04-02T06:20:49;100286.13;;;13.10;77.67
42385;BME280;28042;43.986;22.860;2023-04-02T06:23:23;100301.59;;;13.29;76.40
42385;BME280;28042;43.986;22.860;2023-04-02T06:26:02;100298.28;;;12.96;76.49
42385;BME280;28042;43.986;22.860;2023-04-02T06:28:35;100307.47;;;12.77;78.03
42385;BME280;28042;43.986;22.860;2023-04-02T06:31:08;100244.91;;;12.24;80.44
42385;BME280;28042;43.986;22.860;2023-04-02T06:33:35;100258.41;;;12.19;80.35
42385;BME280;28042;43.986;22.860;2023-04-02T06:36:02;100250.00;;;12.20;81.91
42385;BME280;28042;43.986;22.860;2023-04-02T06:38:28;100292.31;;;12.49;80.28
42385;BME280;28042;43.986;22.860;2023-04-02T06:41:04;100296.97;;;12.42;80.21
42385;BME280;28042;43.986;22.860;2023-04-02T06:43:44;100299.91;;;12.47;80.98
42385;BME280;28042;43.986;22.860;2023-04-02T06:46:22;100298.78;;;12.55;81.22
42385;BME280;28042;43.986;22.860;2023-04-02T06:48:51;100250.75;;;12.34;81.70
42385;BME280;28042;43.986;22.860;2023-04-02T06:51:19;100296.72;;;12.82;80.91
42385;BME280;28042;43.986;22.860;2023-04-02T06:53:48;100300.47;;;12.87;77.92
42385;BME280;28042;43.986;22.860;2023-04-02T06:59:02;100280.28;;;12.82;76.49
42385;BME280;28042;43.986;22.860;2023-04-02T07:01:45;100291.91;;;13.02;76.63
42385;BME280;28042;43.986;22.860;2023-04-02T07:04:14;100261.69;;;12.90;77.71
42385;BME280;28042;43.986;22.860;2023-04-02T07:06:40;100288.59;;;13.18;77.13
42385;BME280;28042;43.986;22.860;2023-04-02T07:09:05;100246.50;;;12.94;78.13
42385;BME280;28042;43.986;22.860;2023-04-02T07:11:31;100262.72;;;13.14;77.87
42385;BME280;28042;43.986;22.860;2023-04-02T07:13:56;100263.34;;;13.16;76.82
42385;BME280;28042;43.986;22.860;2023-04-02T07:16:24;100310.97;;;13.40;75.96
42385;BME280;28042;43.986;22.860;2023-04-02T07:18:51;100294.91;;;13.44;77.55
42385;BME280;28042;43.986;22.860;2023-04-02T07:21:16;100257.44;;;13.38;75.44
42385;BME280;28042;43.986;22.860;2023-04-02T07:23:42;100297.97;;;13.72;72.55
42385;BME280;28042;43.986;22.860;2023-04-02T07:26:12;100265.53;;;13.69;73.71
42385;BME280;28042;43.986;22.860;2023-04-02T07:28:38;100289.22;;;14.00;73.42
42385;BME280;28042;43.986;22.860;2023-04-02T07:31:18;100316.94;;;14.40;73.07
42385;BME280;28042;43.986;22.860;2023-04-02T07:33:45;100276.56;;;14.29;70.01
42385;BME280;28042;43.986;22.860;2023-04-02T07:36:19;100306.06;;;14.64;71.07
42385;BME280;28042;43.986;22.860;2023-04-02T07:38:45;100319.25;;;14.85;72.27
42385;BME280;28042;43.986;22.860;2023-04-02T07:41:12;100278.16;;;14.67;69.29
42385;BME280;28042;43.986;22.860;2023-04-02T07:43:38;100279.09;;;14.61;70.72
42385;BME280;28042;43.986;22.860;2023-04-02T07:46:05;100290.94;;;14.73;68.67
42385;BME280;28042;43.986;22.860;2023-04-02T07:48:31;100291.19;;;14.72;65.78
42385;BME280;28042;43.986;22.860;2023-04-02T07:50:57;100319.41;;;14.90;67.10
42385;BME280;28042;43.986;22.860;2023-04-02T07:55:57;100319.78;;;15.06;66.14
42385;BME280;28042;43.986;22.860;2023-04-02T07:58:23;100282.84;;;14.90;68.21
42385;BME280;28042;43.986;22.860;2023-04-02T08:00:48;100333.03;;;15.09;67.02
42385;BME280;28042;43.986;22.860;2023-04-02T08:03:14;100320.63;;;14.94;66.12
42385;BME280;28042;43.986;22.860;2023-04-02T08:05:40;100286.88;;;14.76;64.65
42385;BME280;28042;43.986;22.860;2023-04-02T08:08:06;100319.31;;;15.09;66.37
42385;BME280;28042;43.986;22.860;2023-04-02T08:10:31;100313.22;;;15.07;65.40
42385;BME280;28042;43.986;22.860;2023-04-02T08:12:57;100322.53;;;15.17;62.38
42385;BME280;28042;43.986;22.860;2023-04-02T08:15:22;100326.25;;;15.23;63.85
42385;BME280;28042;43.986;22.860;2023-04-02T08:17:48;100330.88;;;15.11;61.51
42385;BME280;28042;43.986;22.860;2023-04-02T08:20:15;100275.09;;;14.98;61.12
42385;BME280;28042;43.986;22.860;2023-04-02T08:22:43;100323.16;;;15.31;60.96
42385;BME280;28042;43.986;22.860;2023-04-02T08:25:09;100271.06;;;15.13;61.39
42385;BME280;28042;43.986;22.860;2023-04-02T08:27:34;100262.19;;;15.11;59.75
42385;BME280;28042;43.986;22.860;2023-04-02T08:30:00;100324.09;;;15.25;59.57
42385;BME280;28042;43.986;22.860;2023-04-02T08:32:25;100263.19;;;15.05;59.71
42385;BME280;28042;43.986;22.860;2023-04-02T08:34:53;100267.34;;;15.19;61.32
42385;BME280;28042;43.986;22.860;2023-04-02T08:37:20;100327.94;;;15.71;62.01
42385;BME280;28042;43.986;22.860;2023-04-02T08:39:45;100325.19;;;15.82;58.77
42385;BME280;28042;43.986;22.860;2023-04-02T08:48:14;100332.88;;;16.21;59.34
42385;BME280;28042;43.986;22.860;2023-04-02T08:50:41;100264.06;;;15.92;58.68
42385;BME280;28042;43.986;22.860;2023-04-02T08:53:34;100325.63;;;16.43;57.79
42385;BME280;28042;43.986;22.860;2023-04-02T08:56:08;100279.69;;;16.32;59.70
42385;BME280;28042;43.986;22.860;2023-04-02T08:58:41;100320.13;;;16.72;56.80
42385;BME280;28042;43.986;22.860;2023-04-02T09:01:48;100323.91;;;16.82;57.11
42385;BME280;28042;43.986;22.860;2023-04-02T09:04:20;100262.88;;;16.45;54.50
42385;BME280;28042;43.986;22.860;2023-04-02T09:06:48;100331.06;;;16.55;54.92
42385;BME280;28042;43.986;22.860;2023-04-02T09:09:17;100318.91;;;16.67;56.66
42385;BME280;28042;43.986;22.860;2023-04-02T09:11:55;100315.72;;;16.71;55.70
42385;BME280;28042;43.986;22.860;2023-04-02T09:17:26;100283.28;;;16.61;56.35
42385;BME280;28042;43.986;22.860;2023-04-02T09:20:01;100328.06;;;16.85;53.19
42385;BME280;28042;43.986;22.860;2023-04-02T09:22:31;100312.63;;;17.01;54.88
42385;BME280;28042;43.986;22.860;2023-04-02T09:25:03;100310.41;;;17.14;52.46
42385;BME280;28042;43.986;22.860;2023-04-02T09:27:33;100249.66;;;17.09;52.41
42385;BME280;28042;43.986;22.860;2023-04-02T09:30:11;100306.81;;;17.31;51.81
42385;BME280;28042;43.986;22.860;2023-04-02T09:37:43;100302.00;;;17.60;47.10
42385;BME280;28042;43.986;22.860;2023-04-02T09:42:45;100239.94;;;17.40;46.28
42385;BME280;28042;43.986;22.860;2023-04-02T09:47:38;100277.69;;;17.73;46.34
42385;BME280;28042;43.986;22.860;2023-04-02T09:50:33;100312.66;;;17.90;45.64
42385;BME280;28042;43.986;22.860;2023-04-02T09:53:23;100311.97;;;17.99;44.69
42385;BME280;28042;43.986;22.860;2023-04-02T09:56:07;100306.50;;;17.83;44.31
42385;BME280;28042;43.986;22.860;2023-04-02T09:58:33;100253.63;;;17.52;45.36
42385;BME280;28042;43.986;22.860;2023-04-02T10:00:59;100248.31;;;17.29;44.59
42385;BME280;28042;43.986;22.860;2023-04-02T10:03:27;100262.75;;;17.36;43.92
42385;BME280;28042;43.986;22.860;2023-04-02T10:06:08;100308.06;;;17.78;46.00
42385;BME280;28042;43.986;22.860;2023-04-02T10:08:38;100264.59;;;17.47;44.82
42385;BME280;28042;43.986;22.860;2023-04-02T10:11:09;100252.53;;;17.53;43.47
42385;BME280;28042;43.986;22.860;2023-04-02T10:13:50;100318.44;;;18.10;44.38
42385;BME280;28042;43.986;22.860;2023-04-02T10:18:56;100291.59;;;17.84;42.05
42385;BME280;28042;43.986;22.860;2023-04-02T10:21:25;100318.38;;;17.83;41.68
42385;BME280;28042;43.986;22.860;2023-04-02T10:23:53;100311.19;;;17.65;42.59
42385;BME280;28042;43.986;22.860;2023-04-02T10:32:13;100308.16;;;18.27;43.42
42385;BME280;28042;43.986;22.860;2023-04-02T10:35:03;100313.50;;;18.34;41.03
42385;BME280;28042;43.986;22.860;2023-04-02T10:40:58;100263.06;;;18.22;42.17
42385;BME280;28042;43.986;22.860;2023-04-02T10:43:46;100318.59;;;18.47;42.04
42385;BME280;28042;43.986;22.860;2023-04-02T10:46:24;100314.47;;;18.50;39.81
42385;BME280;28042;43.986;22.860;2023-04-02T10:51:42;100313.41;;;19.05;40.96
42385;BME280;28042;43.986;22.860;2023-04-02T10:56:46;100254.22;;;18.69;40.69
42385;BME280;28042;43.986;22.860;2023-04-02T10:59:22;100293.41;;;18.66;39.57
42385;BME280;28042;43.986;22.860;2023-04-02T11:01:50;100304.66;;;18.86;41.15
42385;BME280;28042;43.986;22.860;2023-04-02T11:04:28;100297.06;;;18.71;40.63
42385;BME280;28042;43.986;22.860;2023-04-02T11:07:19;100298.59;;;18.62;41.06
42385;BME280;28042;43.986;22.860;2023-04-02T11:09:50;100266.25;;;18.89;39.46
42385;BME280;28042;43.986;22.860;2023-04-02T11:12:22;100258.72;;;19.12;38.12
42385;BME280;28042;43.986;22.860;2023-04-02T11:14:50;100224.09;;;19.04;38.98
42385;BME280;28042;43.986;22.860;2023-04-02T11:44:22;100277.16;;;18.47;40.62
42385;BME280;28042;43.986;22.860;2023-04-02T11:46:48;100234.06;;;18.19;40.38
42385;BME280;28042;43.986;22.860;2023-04-02T11:49:35;100290.44;;;18.50;41.31
42385;BME280;28042;43.986;22.860;2023-04-02T11:52:01;100246.41;;;18.12;41.13
42385;BME280;28042;43.986;22.860;2023-04-02T11:54:29;100289.69;;;18.33;42.17
42385;BME280;28042;43.986;22.860;2023-04-02T11:57:18;100226.75;;;17.81;41.99
42385;BME280;28042;43.986;22.860;2023-04-02T12:00:10;100236.28;;;17.73;43.45
42385;BME280;28042;43.986;22.860;2023-04-02T12:05:38;100278.78;;;17.72;45.00
42385;BME280;28042;43.986;22.860;2023-04-02T12:10:58;100234.31;;;17.52;46.01
42385;BME280;28042;43.986;22.860;2023-04-02T12:16:12;100285.94;;;18.17;43.90
42385;BME280;28042;43.986;22.860;2023-04-02T12:18:46;100267.75;;;18.43;43.85
42385;BME280;28042;43.986;22.860;2023-04-02T12:21:17;100218.16;;;18.31;43.69
42385;BME280;28042;43.986;22.860;2023-04-02T12:23:45;100207.38;;;18.30;41.35
42385;BME280;28042;43.986;22.860;2023-04-02T12:26:33;100273.84;;;18.72;41.20
42385;BME280;28042;43.986;22.860;2023-04-02T12:29:33;100263.09;;;18.76;41.73
42385;BME280;28042;43.986;22.860;2023-04-02T12:32:00;100221.34;;;18.45;40.92
42385;BME280;28042;43.986;22.860;2023-04-02T12:34:28;100266.09;;;18.69;41.33
42385;BME280;28042;43.986;22.860;2023-04-02T12:37:01;100275.31;;;18.58;42.55
42385;BME280;28042;43.986;22.860;2023-04-02T12:39:28;100257.28;;;18.72;44.20
42385;BME280;28042;43.986;22.860;2023-04-02T12:41:55;100215.50;;;18.42;43.32
42385;BME280;28042;43.986;22.860;2023-04-02T12:44:23;100213.16;;;18.55;43.25
42385;BME280;28042;43.986;22.860;2023-04-02T12:46:50;100217.91;;;18.60;42.22
42385;BME280;28042;43.986;22.860;2023-04-02T12:49:38;100271.09;;;18.72;40.97
42385;BME280;28042;43.986;22.860;2023-04-02T12:52:15;100276.81;;;18.66;40.64
42385;BME280;28042;43.986;22.860;2023-04-02T12:54:52;100255.97;;;18.53;40.83
42385;BME280;28042;43.986;22.860;2023-04-02T13:00:01;100251.66;;;18.40;41.09
42385;BME280;28042;43.986;22.860;2023-04-02T13:02:37;100208.22;;;18.30;41.54
42385;BME280;28042;43.986;22.860;2023-04-02T13:05:07;100256.50;;;18.77;40.73
42385;BME280;28042;43.986;22.860;2023-04-02T13:07:33;100260.56;;;18.69;40.35
42385;BME280;28042;43.986;22.860;2023-04-02T13:10:23;100239.38;;;18.53;40.59
42385;BME280;28042;43.986;22.860;2023-04-02T13:12:54;100273.47;;;18.63;40.31
42385;BME280;28042;43.986;22.860;2023-04-02T13:15:31;100214.31;;;18.32;41.12
42385;BME280;28042;43.986;22.860;2023-04-02T13:18:16;100272.06;;;18.61;40.29
42385;BME280;28042;43.986;22.860;2023-04-02T13:20:57;100247.50;;;18.38;40.65
42385;BME280;28042;43.986;22.860;2023-04-02T13:25:52;100274.94;;;18.71;40.05
42385;BME280;28042;43.986;22.860;2023-04-02T13:28:18;100269.81;;;18.85;40.50
42385;BME280;28042;43.986;22.860;2023-04-02T13:30:44;100263.94;;;18.76;39.57
42385;BME280;28042;43.986;22.860;2023-04-02T13:33:11;100256.78;;;18.80;41.08
42385;BME280;28042;43.986;22.860;2023-04-02T13:35:36;100225.50;;;18.48;41.35
42385;BME280;28042;43.986;22.860;2023-04-02T13:38:02;100265.06;;;18.53;42.24
42385;BME280;28042;43.986;22.860;2023-04-02T13:40:29;100258.97;;;18.24;43.43
42385;BME280;28042;43.986;22.860;2023-04-02T13:42:56;100223.88;;;17.98;43.68
42385;BME280;28042;43.986;22.860;2023-04-02T13:45:33;100256.78;;;18.26;43.65
42385;BME280;28042;43.986;22.860;2023-04-02T13:48:00;100217.91;;;18.06;43.37
42385;BME280;28042;43.986;22.860;2023-04-02T13:50:31;100266.94;;;18.48;43.97
42385;BME280;28042;43.986;22.860;2023-04-02T13:53:01;100264.88;;;18.60;44.26
42385;BME280;28042;43.986;22.860;2023-04-02T13:55:30;100259.63;;;18.90;44.06
42385;BME280;28042;43.986;22.860;2023-04-02T13:57:59;100226.75;;;18.62;42.21
42385;BME280;28042;43.986;22.860;2023-04-02T14:00:25;100225.38;;;18.64;42.92
42385;BME280;28042;43.986;22.860;2023-04-02T14:02:57;100278.97;;;18.85;42.62
42385;BME280;28042;43.986;22.860;2023-04-02T14:08:57;100274.38;;;18.20;42.67
42385;BME280;28042;43.986;22.860;2023-04-02T14:16:58;100284.19;;;17.67;44.80
42385;BME280;28042;43.986;22.860;2023-04-02T14:42:28;100282.16;;;16.90;48.01
42385;BME280;28042;43.986;22.860;2023-04-02T14:47:32;100294.84;;;16.75;45.06
42385;BME280;28042;43.986;22.860;2023-04-02T14:50:11;100284.91;;;16.74;45.60
42385;BME280;28042;43.986;22.860;2023-04-02T14:52:41;100292.97;;;16.63;46.45
42385;BME280;28042;43.986;22.860;2023-04-02T14:55:17;100267.56;;;16.45;45.94
42385;BME280;28042;43.986;22.860;2023-04-02T14:57:48;100246.34;;;16.28;46.45
42385;BME280;28042;43.986;22.860;2023-04-02T15:02:52;100297.13;;;16.66;47.86
42385;BME280;28042;43.986;22.860;2023-04-02T15:07:54;100298.63;;;16.57;49.01
42385;BME280;28042;43.986;22.860;2023-04-02T15:10:29;100314.13;;;16.46;48.33
42385;BME280;28042;43.986;22.860;2023-04-02T15:12:56;100305.47;;;16.26;48.32
42385;BME280;28042;43.986;22.860;2023-04-02T15:15:53;100318.84;;;16.34;49.25
42385;BME280;28042;43.986;22.860;2023-04-02T15:18:21;100342.34;;;16.13;49.75
42385;BME280;28042;43.986;22.860;2023-04-02T15:21:01;100295.28;;;15.86;50.06
42385;BME280;28042;43.986;22.860;2023-04-02T15:26:18;100341.91;;;15.93;51.44
42385;BME280;28042;43.986;22.860;2023-04-02T15:28:54;100336.19;;;15.94;51.99
42385;BME280;28042;43.986;22.860;2023-04-02T15:31:26;100288.13;;;15.50;51.47
42385;BME280;28042;43.986;22.860;2023-04-02T15:50:25;100356.13;;;16.01;49.40
42385;BME280;28042;43.986;22.860;2023-04-02T15:53:00;100295.69;;;15.66;49.17
42385;BME280;28042;43.986;22.860;2023-04-02T16:11:24;100354.75;;;15.64;47.73
42385;BME280;28042;43.986;22.860;2023-04-02T16:13:51;100339.78;;;15.48;48.08
42385;BME280;28042;43.986;22.860;2023-04-02T16:16:31;100310.72;;;15.17;47.90
42385;BME280;28042;43.986;22.860;2023-04-02T16:24:23;100377.72;;;15.16;50.49
42385;BME280;28042;43.986;22.860;2023-04-02T16:35:13;100389.63;;;14.68;52.29
42385;BME280;28042;43.986;22.860;2023-04-02T16:43:28;100322.94;;;14.01;54.16
42385;BME280;28042;43.986;22.860;2023-04-02T16:46:31;100382.50;;;14.30;54.07
42385;BME280;28042;43.986;22.860;2023-04-02T16:49:28;100369.88;;;14.11;54.38
42385;BME280;28042;43.986;22.860;2023-04-02T16:57:42;100337.69;;;13.45;56.92
42385;BME280;28042;43.986;22.860;2023-04-02T17:00:28;100392.03;;;13.73;57.13
42385;BME280;28042;43.986;22.860;2023-04-02T17:03:05;100407.69;;;13.66;58.15
42385;BME280;28042;43.986;22.860;2023-04-02T17:05:55;100407.56;;;13.54;59.48
42385;BME280;28042;43.986;22.860;2023-04-02T17:08:25;100351.34;;;13.26;59.56
42385;BME280;28042;43.986;22.860;2023-04-02T17:10:59;100388.06;;;13.44;60.12
42385;BME280;28042;43.986;22.860;2023-04-02T17:13:47;100357.97;;;13.12;60.81
42385;BME280;28042;43.986;22.860;2023-04-02T17:18:55;100405.25;;;13.33;61.93
42385;BME280;28042;43.986;22.860;2023-04-02T17:21:27;100396.84;;;13.27;62.08
42385;BME280;28042;43.986;22.860;2023-04-02T17:24:00;100403.28;;;13.40;61.69
42385;BME280;28042;43.986;22.860;2023-04-02T17:26:28;100356.72;;;13.08;62.02
42385;BME280;28042;43.986;22.860;2023-04-02T17:28:58;100404.44;;;13.25;63.17
42385;BME280;28042;43.986;22.860;2023-04-02T17:31:28;100353.69;;;12.91;63.33
42385;BME280;28042;43.986;22.860;2023-04-02T17:33:58;100379.47;;;13.09;63.59
42385;BME280;28042;43.986;22.860;2023-04-02T17:39:38;100430.34;;;13.29;64.57
42385;BME280;28042;43.986;22.860;2023-04-02T17:42:30;100372.28;;;12.83;64.65
42385;BME280;28042;43.986;22.860;2023-04-02T17:45:23;100434.22;;;13.15;65.67
42385;BME280;28042;43.986;22.860;2023-04-02T17:48:04;100389.50;;;12.90;65.05
42385;BME280;28042;43.986;22.860;2023-04-02T17:56:04;100461.16;;;13.18;65.67
42385;BME280;28042;43.986;22.860;2023-04-02T18:07:23;100460.13;;;12.74;69.05